Etusivu
METAR-TAF:

METAR-TAF

Lentoasemat :

Bric della Croce

Torino, Italia

Leveyspiiri: 45-02N, Pituuspiiri: 007-44E, korkeus merenpinnasta: 709 m

Tämänhetkinen sää

Tämä raportti tehtiin 51 minuuttia sitten, kello 17.55 UTC
Tuuli 12 kn lännestä/lounaasta, vaihdellen lounaan ja pohjoisen välillä
Lämpötila 7°C
Kosteus 57%
Ilmanpaine 998 hPa
Näkyvyys 10 km tai enemmän
ei pilviä alle 1500 m:ssä eikä cumulonimbus-pilviä

METAR: LIMK 121755Z 24012KT 220V360 CAVOK 07/M01 Q0998

Aika: 19:46 (18:46 UTC)


TAF: puuttuu

Säähavainnot ja -ennusteet yli 4000 lentoasemalta (METAR- ja TAF-raportit).

Käytössä olevat sääasemat on merkitty karttaan keltaisilla ja punaisilla pisteillä.

Aseta hiiri pisteen päälle nähdäksesi sääaseman nimen.

Klikkaa sitten nähdäksesi säähavainnot ja -ennusteet.

Kartan vaihtaminen: klikkaa mustalla rastilla varustettuja vihreitä pisteitä, niin voit zoomata sisään; viivalla varustettua vihreää pistettä, niin voit zoomata ulos tai vihreitä nuolia, niin pääset viereisille kartoille.


METAR-TAF: